Timeline UpdatesTrip UpdatesNews PostsPvt PostsTravel TipsAdmin PostsConv PostsFollowed PostsChat RequestsBlog PostsPNR Posts

Disclaimer
Search
 
 
Thu Apr 17, 2014 06:23:48 ISTHomeTrainsΣChainsAtlasPNRForumGalleryNewsFAQTripsMembersLoginFeedback
No Recent News for this Train
Other Trains in the News **new
Latest...
Due to operational reasons, the 13111 Kolkata - Delhi Jn. Lal Quilla Express of today i.e. 03.03.2014 is cancelled.
Mon Mar 03, 2014 (05:21PM)
⇐ Return Journey: Train# 13112

13111/Lal Quila Express

Jul 01 2013 (5:09PM)
Change Departure Station:
Change Arrival Station:
Post a Train Travel TipPost a Train Travel Tip **new
Post a Comment/Question/Picture/VideoPost a Comment/Question/Picture/Video
Pantry/Catering
✕ NO Pantry Car
✓ Catering Avbl
RSA - Rake Sharing
Rake/Coach Composition
LOCO-S1-B1-SLR-GEN-S2-S3-S4-B2-GEN-GEN-RMS-SLR [S1,B1 detached at MDP] ; :Entry# 618089-32
Loco
WAP4 HOWRAH/GHAZIABAD SHED
News    PNR    Forum    Time-Table    Availability    Fare Chart    Map    Arr/Dep History    Trips    Gallery    ΣChains    X/O    Timeline    
Travel Time: 30h 55m    65 halts    Distance: 1529 km    Avg Speed: 49 km/hr
Type: Mail/Express
Zone: ER/Eastern
Departs @ 20:15 (Avg 28m late)
Platform# 3
SMTWTFS
Kolkata Chitpur/KOAA 
Arrives @ 03:10 +2 nights (Avg 4h 41m late)
Platform# 7
SMTWTFS
Old Delhi Junction/DLI 

65 halts. 291 intermediate Stations between Kolkata Chitpur and Old Delhi Junction

Show ALL intermediate Stations  Show Old Time-Table

#CodeStation NameX/OArrivesAvgDepartsAvgHaltPFDay#KmSpeedElevZoneAddress
1KOAA»Kolkata Chitpur (5)»  -20:15+28310.0316mERKolkata, West Bengal
2DAKEDakhineswar (2)  20:34+3220:35+331m119.96410mERDist - 24 paraganas ( North ), West Bengal
3BWNBarddhaman Junction (8)  21:58+3722:03+375m1198.68434mERDist - Barddhaman, West Bengal
4RNGRaniGanj (4)  23:06+4623:07+471m21186.45492mERRaniganj, West Bengal
5ASNAsansol Junction (7)X  23:27+4823:32+525m41204.650113mERDist - bardhaman, West Bengal
6CRJChittaranjan (3)  00:02+5400:03+551m32229.766182mERMihijam, Jharkhand
7JMTJamtara (2)X  00:16+5400:17+561m12244.059201mERJamtara, Jharkhand
8MDPMadhupur Junction (4)XO01:00+5301:40+5040m22286.073254mER06432-224478, Jharkhand
9JSMEJasidih Junction (5)X  02:04+5002:09+505m22315.152271mERJasidih, Jharkhand
10JAJJhajha (4)X  03:00+4903:05+495m--2359.274143mECRJhajha, Bihar
11JMUJamui (3)  03:26+5003:27+521m--2385.26881mECRState Highway 72, Bihar
12KIULKiul Junction (5)X  03:51+5603:55+564m--2412.51253mECRDist. Lakhisarai, Bihar
13LKRLuckeesarai Junction (2)  04:02+5504:03+571m--2413.96552mECRLakhisarai, Bihar
14BRYABarhiyaXO  04:17+5904:18+1:011m--2429.05947mECRBarahiya, Bihar
15MKAMokama Junction (3)  04:36+1:0504:40+1:054m--2446.78648mECRPatna, Bihar
16BARHBarh (3)  04:58+1:1004:59+1:111m--2472.66849mECRBarh, Bihar
17BKPBakhtiyarpur Junction (5)X  05:15+1:1205:19+1:134m--2490.97751mECRPatna, Bihar
18FUTFatwa (6)X  05:37+1:3605:38+1:381m--2513.94653mECRPatna, Bihar
19BKGBanka Ghat (2)O  05:46+1:3705:47+1:381m--2520.05356mECRPatna, Bihar
20PNCPatna Saheb (3)X  05:54+1:3805:55+1:401m--2526.12059mECRPatna, Bihar
21GZHGulzarbagh (3)XO  06:04+1:4006:05+1:411m--2529.22855mECRPatna, Bihar
22RJPBRajendra Nagar Bihar (4)X  06:14+1:3606:16+1:372m--2533.4555mECRPatna 800001, Bihar
23PNBEPatna Junction (10)X  06:50+1:2107:00+1:2510m42536.03857mECRPatna 800001, Bihar
24DNRDanapur (5)X  07:15+1:2907:35+1:3820m--2545.48758mECRKhagaul, Bihar
25BTABihta (2)X  07:47+1:4407:48+1:451m--2562.75862mECRBihta, Bihar
26KWRKoelwar (2)X  07:57+1:4507:58+1:461m--2571.54365mECRNational Highway 30, Bihar
27KUAKulharia (2)X  08:03+1:4508:04+1:461m--2575.05461mECRChandi Sahar Rd, Bihar
28ARAAra Junction (3)XO  08:15+1:4608:20+1:485m--2584.99263mECRarrah( 06182-233411), Bihar
29BEABihiyaO  08:34+1:5508:35+1:591m--2606.45167mECRBehea, Bihar
30BYNBanahi  08:42+2:0208:43+2:021m--2612.35967mECRBanahi, Bihar
31RPRRaghunathpur  08:52+2:0108:53+2:041m--2621.17469mECRRaghunathpur, Bihar
32DUREDumraon (3)X  09:06+2:0609:07+2:081m--2637.12970mECRDumraon, Bihar
33BXRBuxar (3)X  09:41+1:5109:46+1:535m22653.47367mECRBuxar, Bihar
34CSAChausa (2)  09:55+1:5409:56+1:551m--2664.44368mECRState Highway 14, Bihar
35GMRGahmar (2)X  10:09+1:5310:10+1:541m--2673.63868mECRDistt: Ghazipur, Uttar Pradesh
36BWHBhadaura  10:23+1:4910:24+1:511m--2681.84769mECRGhazipur, Uttar Pradesh
37DLNDildarnagar Junction (2)X  10:34+1:5010:36+1:512m--2689.64072mECRDildarnagar, Uttar Pradesh
38ZNAZamania  10:56+1:4210:57+1:471m--2703.13877mECRGhazipur, Uttar Pradesh
39MGSMughal Sarai Junction (8)X  12:07+1:3012:27+1:2720m52747.35383mECRMughalsarai 232101, Uttar Pradesh
40CARChunar Junction (5)X  13:03+1:5013:04+1:521m22779.25485mNCRChunar Junction, Uttar Pradesh
41MZPMirzapur (3)  13:39+2:0213:40+2:071m--2810.54088mNCRMirzapur, Uttar Pradesh
42BDLVindhyachal (3)X  13:51+2:1013:52+2:131m--2817.87288mNCRMirzapur, Uttar Pradesh
43MNFManda Road  14:15+2:3014:16+2:311m--2845.46593mNCRNH 76, Uttar Pradesh
44MJAMeja Road (4)X  14:31+2:3314:32+2:361m--2861.67294mNCRDistrict Allahabad, Uttar Pradesh
45NYNNaini Junction (4)  14:58+2:5215:00+2:522m22892.62198mNCRAllahabad, Uttar Pradesh
46ALDAllahabad Junction (10)X  15:20+2:5515:30+3:0010m32899.760100mNCRAllahabad 211003, Uttar Pradesh
47BREBharwari  16:07+3:2116:08+3:241m--2936.864108mNCRBharwari, Uttar Pradesh
48SROSirathu (2)  16:27+3:2616:28+3:291m12956.978109mNCRSirathu, Uttar Pradesh
49KGAKhaga (3)X  16:47+3:3616:48+3:401m--2981.867114mNCRFatehpur, Uttar Pradesh
50RUBRasulabadX  17:01+3:4117:02+3:421m--2996.355118mNCRRasulabad, Uttar Pradesh
51FTPFatehpur (3)  17:24+3:3617:25+3:411m321016.469120mNCRFatehpur, Uttar Pradesh
52MWHMalwan (2)  17:39+3:4917:40+3:521m--21032.665122mNCRFatehpur, Uttar Pradesh
53BKOBindki Road  17:54+3:5317:55+4:011m--21047.753124mNCRFatehpur, Uttar Pradesh
54KBNKarbigwanX  18:09+4:0218:10+4:041m--21060.045121mNCRFatehpur, Uttar Pradesh
55CNBKanpur Central (10)X  18:55+4:0619:05+4:1110m--21094.119128mNCRKanpur, Uttar Pradesh
56GOYGovindpuri Junction (2)X  19:17+4:1819:18+4:191m121097.846129mNCRKANPUR-208 006, Uttar Pradesh
57PNKPanki (3)X  19:28+4:2119:29+4:231m--21105.578129mNCRKANPUR-208 020, Uttar Pradesh
58PHDPhaphund (4)X  20:24+4:2720:25+4:301m321177.199146mNCRdist. Auraiya, Uttar Pradesh
59ETWEtawah (5)X  20:59+4:4621:00+4:471m221233.385154mNCRDistt. Etawah, Uttar Pradesh
60SKBShikohabad Junction (4)  21:39+4:4521:40+4:421m321288.729166mNCRDistrict Firozabad, Uttar Pradesh
61FZDFirozabad (4)X  22:21+4:2122:22+5:071m321308.643164mNCRFirozabad, Uttar Pradesh
62TDLTundla Junction (4)X  22:45+4:2822:55+4:2710m221325.182167mNCRDistt.Firozabad, Uttar Pradesh
63HRSHathras Junction (3)X  23:30+4:3123:31+4:421m--21373.167183mNCRMahamaya Nagar(05722-242803), Uttar Pradesh
64ALJNAligarh Junction (4)  23:58+4:5800:03+4:595m321403.371192mNCRAligarh, Uttar Pradesh
65KRJKhurja Junction (4)X  00:40+4:4900:45+4:485m231446.838199mNCRBulandshahr, Uttar Pradesh
66GZBGhaziabad Junction (6)X  02:23+4:4602:25+4:452m531509.427217mNRGhaziabad, Uttar Pradesh
67DLI•Old Delhi Junction (16)•  03:10+4:41-731529.5-219mNRNear Chandni Chowk Metro Station, Delhi NCT
Scroll to Top
Scroll to Bottom